createdAt,value
2023-02-09T04:49:57.403Z,80.40
2023-02-09T04:55:32.232Z,80.20
2023-02-09T04:58:27.311Z,80.30
2023-02-09T05:01:18.590Z,79.00
2023-02-09T05:04:00.431Z,77.80
2023-02-09T05:06:43.879Z,78.40
2023-02-09T05:09:11.132Z,79.80
2023-02-09T05:11:50.940Z,79.80
2023-02-09T05:14:36.810Z,80.50
2023-02-09T05:17:03.860Z,80.80
2023-02-09T05:19:31.080Z,80.50
2023-02-09T05:22:16.753Z,80.00
2023-02-09T05:24:55.315Z,80.20
2023-02-09T05:27:35.132Z,80.20
2023-02-09T05:30:39.789Z,79.60
2023-02-09T05:33:27.012Z,79.70
2023-02-09T05:36:17.063Z,79.20
2023-02-09T05:41:56.874Z,80.50
2023-02-09T05:44:28.261Z,80.00
2023-02-09T05:47:10.168Z,79.30
2023-02-09T05:49:46.673Z,79.80
2023-02-09T05:52:40.377Z,80.00
2023-02-09T05:57:54.352Z,78.20
2023-02-09T06:00:21.981Z,79.60
2023-02-09T06:02:50.015Z,80.20
2023-02-09T06:05:17.071Z,80.00
2023-02-09T06:07:44.013Z,80.30
2023-02-09T06:10:10.968Z,79.90
2023-02-09T06:12:38.562Z,80.00
2023-02-09T06:15:06.598Z,78.80
2023-02-09T06:17:33.589Z,80.10
2023-02-09T06:20:00.542Z,80.10
2023-02-09T06:22:29.219Z,79.90
2023-02-09T06:24:56.163Z,80.10
2023-02-09T06:27:23.148Z,79.90
2023-02-09T06:29:50.115Z,79.40
2023-02-09T06:32:17.197Z,79.10
2023-02-09T06:34:44.156Z,79.80
2023-02-09T06:37:11.067Z,80.00
2023-02-09T06:39:38.115Z,79.90
2023-02-09T06:42:05.112Z,79.70
2023-02-09T06:44:32.075Z,78.90
2023-02-09T06:46:59.032Z,78.60
2023-02-09T06:49:26.695Z,78.80
2023-02-09T06:51:53.858Z,79.10
2023-02-09T06:54:21.224Z,79.70
2023-02-09T06:56:48.303Z,80.00
2023-02-09T06:59:15.728Z,79.60
2023-02-09T07:01:42.767Z,79.90
2023-02-09T07:04:09.769Z,80.10
2023-02-09T07:06:36.697Z,80.20
2023-02-09T07:09:03.682Z,80.50
2023-02-09T07:11:30.666Z,80.00
2023-02-09T07:13:57.683Z,80.20
2023-02-09T07:16:24.816Z,80.50
2023-02-09T07:18:51.796Z,80.60
2023-02-09T07:21:21.293Z,81.10
2023-02-09T07:23:48.388Z,80.70
2023-02-09T07:26:16.630Z,80.80
2023-02-09T07:28:43.693Z,80.60
2023-02-09T07:31:12.269Z,80.90
2023-02-09T07:33:39.544Z,81.50
2023-02-09T07:36:07.726Z,81.70
2023-02-09T07:38:34.913Z,81.40
2023-02-09T07:41:02.893Z,82.00
2023-02-09T07:43:30.228Z,82.00
2023-02-09T07:46:01.212Z,82.20
2023-02-09T07:48:28.311Z,82.40
2023-02-09T07:50:55.234Z,82.30
2023-02-09T07:53:22.224Z,82.50
2023-02-09T07:55:49.194Z,82.70
2023-02-09T07:58:18.368Z,82.80
2023-02-09T08:00:46.308Z,83.10
2023-02-09T08:03:17.157Z,83.40
2023-02-09T08:06:02.562Z,83.20
2023-02-09T08:08:29.612Z,83.70
2023-02-09T08:10:57.198Z,83.60
2023-02-09T08:13:25.055Z,84.20
2023-02-09T08:15:54.565Z,84.20
2023-02-09T08:18:24.208Z,84.30
2023-02-09T08:20:52.000Z,84.50
2023-02-09T08:23:26.814Z,84.80
2023-02-09T08:25:54.015Z,84.60
2023-02-09T08:28:22.759Z,85.00
2023-02-09T08:30:54.078Z,85.40
2023-02-09T08:33:21.039Z,85.30
2023-02-09T08:35:52.275Z,85.80
2023-02-09T08:38:19.665Z,86.20
2023-02-09T08:40:46.973Z,86.20
2023-02-09T08:43:14.159Z,86.10
2023-02-09T08:45:41.796Z,86.30
2023-02-09T08:48:10.155Z,86.50
2023-02-09T08:50:37.623Z,86.40
2023-02-09T08:53:05.174Z,86.30
2023-02-09T08:55:33.093Z,86.40
2023-02-09T08:58:00.407Z,86.50
2023-02-09T09:00:27.861Z,86.60
2023-02-09T09:02:54.791Z,86.50
2023-02-09T09:05:21.806Z,86.80
2023-02-09T09:07:48.753Z,86.60
2023-02-09T09:10:15.759Z,86.70
2023-02-09T09:12:43.405Z,86.80
2023-02-09T09:15:10.297Z,86.90
2023-02-09T09:17:37.314Z,86.70
2023-02-09T09:20:04.476Z,87.10
2023-02-09T09:22:31.575Z,87.30
2023-02-09T09:24:58.579Z,87.30
2023-02-09T09:27:26.989Z,87.50
2023-02-09T09:29:54.526Z,87.40
2023-02-09T09:32:24.971Z,87.40
2023-02-09T09:34:53.711Z,87.50
2023-02-09T09:37:21.143Z,87.60
2023-02-09T09:39:48.285Z,87.60
2023-02-09T09:42:21.313Z,87.50
2023-02-09T09:44:48.427Z,87.70
2023-02-09T09:47:17.926Z,87.90
2023-02-09T09:49:45.092Z,87.90
2023-02-09T09:52:38.151Z,87.90
2023-02-09T09:55:06.160Z,88.40
2023-02-09T09:57:36.768Z,88.40
2023-02-09T10:00:04.664Z,88.90
2023-02-09T10:02:33.005Z,88.90
2023-02-09T10:05:10.209Z,88.90
2023-02-09T10:07:38.536Z,89.10
2023-02-09T10:10:12.662Z,89.40
2023-02-09T10:12:44.024Z,89.50
2023-02-09T10:15:37.026Z,89.80
2023-02-09T10:18:09.860Z,90.10
2023-02-09T10:20:39.656Z,90.30
2023-02-09T10:23:06.559Z,90.40
2023-02-09T10:25:50.136Z,90.50
2023-02-09T10:28:21.856Z,90.60
2023-02-09T10:30:50.642Z,90.90
2023-02-09T10:33:18.546Z,91.20
2023-02-09T10:35:53.363Z,90.90
2023-02-09T10:38:22.347Z,91.00
2023-02-09T10:40:49.736Z,90.90
2023-02-09T10:43:24.704Z,91.00
2023-02-09T10:45:56.132Z,90.90
2023-02-09T10:48:24.462Z,90.80
2023-02-09T10:51:08.411Z,90.60
2023-02-09T10:53:37.960Z,90.70
2023-02-09T10:56:07.681Z,90.70
2023-02-09T10:58:36.084Z,90.70
2023-02-09T11:01:14.083Z,90.70
2023-02-09T11:04:03.642Z,90.70
2023-02-09T11:06:44.241Z,90.80
2023-02-09T11:09:14.253Z,90.80
2023-02-09T11:11:41.605Z,90.80
2023-02-09T11:14:13.316Z,90.80
2023-02-09T11:16:46.256Z,90.60
2023-02-09T11:19:22.525Z,90.60
2023-02-09T11:22:11.848Z,90.70
2023-02-09T11:24:38.796Z,90.60
2023-02-09T11:27:17.837Z,90.60
2023-02-09T11:30:14.051Z,90.60
2023-02-09T11:32:46.286Z,90.80
2023-02-09T11:35:16.569Z,90.70
2023-02-09T11:38:01.628Z,90.60
2023-02-09T11:40:46.403Z,90.90
2023-02-09T11:43:22.281Z,90.80
2023-02-09T11:45:53.198Z,90.70
2023-02-09T11:48:22.899Z,90.80
2023-02-09T11:50:56.331Z,90.60
2023-02-09T11:53:38.365Z,90.50
2023-02-09T11:56:07.751Z,90.50
2023-02-09T11:58:40.644Z,90.40
2023-02-09T12:01:16.029Z,90.30
2023-02-09T12:03:49.832Z,90.30
2023-02-09T12:06:22.801Z,90.50
2023-02-09T12:08:58.170Z,90.40
2023-02-09T12:11:33.574Z,90.30
2023-02-09T12:14:15.418Z,90.40
2023-02-09T12:16:45.072Z,90.40
2023-02-09T12:19:27.941Z,90.30
2023-02-09T12:21:54.918Z,90.40
2023-02-09T12:24:32.479Z,90.30
2023-02-09T12:26:59.554Z,90.80
2023-02-09T12:29:37.634Z,90.60
2023-02-09T12:32:04.694Z,90.40
2023-02-09T12:34:31.655Z,90.50
2023-02-09T12:37:00.552Z,90.40
2023-02-09T12:39:28.652Z,90.20
2023-02-09T12:41:56.064Z,90.20
2023-02-09T12:44:23.019Z,90.30
2023-02-09T12:46:52.923Z,90.20
2023-02-09T12:49:28.737Z,90.10
2023-02-09T12:52:01.518Z,90.10
2023-02-09T12:54:45.470Z,90.10
2023-02-09T12:57:15.240Z,90.10
2023-02-09T12:59:42.199Z,90.00
2023-02-09T13:02:12.264Z,90.10
2023-02-09T13:04:51.134Z,90.00
2023-02-09T13:07:30.085Z,90.00
2023-02-09T13:09:58.364Z,90.00
2023-02-09T13:12:30.825Z,89.60
2023-02-09T13:14:57.783Z,89.70
2023-02-09T13:17:38.938Z,89.60
2023-02-09T13:20:08.617Z,89.70
2023-02-09T13:22:44.194Z,89.50
2023-02-09T13:25:11.073Z,89.50
2023-02-09T13:27:45.961Z,89.40
2023-02-09T13:30:14.509Z,89.30
2023-02-09T13:32:44.372Z,88.80
2023-02-09T13:35:24.076Z,89.00
2023-02-09T13:37:58.289Z,88.80
2023-02-09T13:40:27.675Z,89.30
2023-02-09T13:43:06.588Z,88.40
2023-02-09T13:45:33.624Z,88.70
2023-02-09T13:48:02.684Z,88.60
2023-02-09T13:50:30.375Z,88.20
2023-02-09T13:53:10.475Z,88.30
2023-02-09T13:55:39.861Z,88.30
2023-02-09T13:58:08.031Z,88.30
2023-02-09T14:00:45.467Z,88.10
2023-02-09T14:03:17.637Z,87.80
2023-02-09T14:05:51.791Z,88.10
2023-02-09T14:08:19.501Z,88.00
2023-02-09T14:10:52.341Z,87.90
2023-02-09T14:13:39.130Z,88.10
2023-02-09T14:16:09.334Z,88.20
2023-02-09T14:18:44.224Z,87.60
2023-02-09T14:21:11.208Z,88.00
2023-02-09T14:23:39.010Z,88.00
2023-02-09T14:26:07.630Z,87.90
2023-02-09T14:28:36.352Z,88.10
2023-02-09T14:31:03.495Z,87.90
2023-02-09T14:33:32.722Z,88.20
2023-02-09T14:36:01.847Z,87.80
2023-02-09T14:38:34.775Z,88.00
2023-02-09T14:41:17.445Z,87.60
2023-02-09T14:43:44.464Z,87.30
2023-02-09T14:46:11.493Z,87.40
2023-02-09T14:48:38.455Z,87.80
2023-02-09T14:51:12.978Z,87.60
2023-02-09T14:53:41.784Z,87.30
2023-02-09T14:56:17.487Z,87.50
2023-02-09T14:58:44.433Z,87.90
2023-02-09T15:01:11.475Z,87.10
2023-02-09T15:03:38.491Z,86.90
2023-02-09T15:06:05.885Z,87.00
2023-02-09T15:08:34.982Z,86.50
2023-02-09T15:11:24.680Z,86.90
2023-02-09T15:13:56.412Z,86.40
2023-02-09T15:16:23.537Z,86.60
2023-02-09T15:18:50.600Z,86.20
2023-02-09T15:21:17.551Z,86.30
2023-02-09T15:23:44.492Z,86.90
2023-02-09T15:26:15.007Z,86.50
2023-02-09T15:28:41.952Z,86.00
2023-02-09T15:31:11.446Z,86.10
2023-02-09T15:33:38.820Z,87.10
2023-02-09T15:36:05.810Z,87.00
2023-02-09T15:38:32.715Z,87.00
2023-02-09T15:41:18.103Z,86.50
2023-02-09T15:44:03.609Z,87.20
2023-02-09T15:46:49.235Z,87.50
2023-02-09T15:49:16.215Z,87.20
2023-02-09T15:51:43.214Z,87.40
2023-02-09T15:54:18.594Z,87.40
2023-02-09T15:56:46.058Z,87.50
2023-02-09T15:59:20.285Z,87.90
2023-02-09T16:01:47.818Z,88.10
2023-02-09T16:04:15.156Z,88.20
2023-02-09T16:06:47.079Z,88.20
2023-02-09T16:09:32.279Z,88.20
2023-02-09T16:11:59.181Z,88.10
2023-02-09T16:14:26.490Z,87.70
2023-02-09T16:16:53.657Z,87.80
2023-02-09T16:19:21.452Z,88.00
2023-02-09T16:21:58.347Z,88.40
2023-02-09T16:24:40.202Z,88.40
2023-02-09T16:27:25.528Z,88.10
2023-02-09T16:29:52.541Z,87.90
2023-02-09T16:32:22.000Z,87.60
2023-02-09T16:34:49.353Z,87.80
2023-02-09T16:37:17.626Z,87.20
2023-02-09T16:39:45.769Z,87.30
2023-02-09T16:42:13.799Z,87.30
2023-02-09T16:44:40.811Z,87.40
2023-02-09T16:47:21.118Z,87.30
2023-02-09T16:50:11.056Z,87.20
2023-02-09T16:52:39.211Z,87.40
2023-02-09T16:55:06.963Z,87.40
2023-02-09T16:57:34.090Z,87.20
2023-02-09T17:00:01.014Z,87.30
2023-02-09T17:02:50.421Z,87.00
2023-02-09T17:05:28.115Z,87.30
2023-02-09T17:07:59.136Z,87.10
2023-02-09T17:10:28.148Z,87.50
2023-02-09T17:12:55.201Z,87.30
2023-02-09T17:15:31.987Z,87.40
2023-02-09T17:18:02.345Z,87.30
2023-02-09T17:20:32.603Z,87.50
2023-02-09T17:22:59.555Z,87.50
2023-02-09T17:25:26.603Z,87.30
2023-02-09T17:27:53.573Z,87.40
2023-02-09T17:30:20.637Z,87.00
2023-02-09T17:32:50.498Z,87.10
2023-02-09T17:35:38.184Z,87.30
2023-02-09T17:38:16.323Z,87.40
2023-02-09T17:40:43.249Z,87.90
2023-02-09T17:43:10.213Z,87.50
2023-02-09T17:45:37.490Z,87.50
2023-02-09T17:48:04.589Z,88.00
2023-02-09T17:50:31.519Z,87.70
2023-02-09T17:52:58.388Z,87.60
2023-02-09T17:55:27.277Z,87.40
2023-02-09T17:57:58.122Z,87.60
2023-02-09T18:00:26.411Z,87.40
2023-02-09T18:02:53.734Z,87.60
2023-02-09T18:05:22.712Z,87.60
2023-02-09T18:07:49.875Z,87.80
2023-02-09T18:10:17.187Z,87.60
2023-02-09T18:12:44.569Z,87.70
2023-02-09T18:15:19.969Z,87.70
2023-02-09T18:17:46.910Z,87.60
2023-02-09T18:20:21.408Z,87.70
2023-02-09T18:22:48.681Z,88.00
2023-02-09T18:25:23.508Z,87.80
2023-02-09T18:27:51.466Z,87.20
2023-02-09T18:30:22.537Z,87.40
2023-02-09T18:32:49.625Z,87.30
2023-02-09T18:35:18.081Z,87.50
2023-02-09T18:37:47.074Z,87.90
2023-02-09T18:40:14.128Z,87.80
2023-02-09T18:42:41.137Z,87.70
2023-02-09T18:45:09.196Z,87.60
2023-02-09T18:47:37.377Z,87.60
2023-02-09T18:50:04.826Z,87.80
2023-02-09T18:52:32.104Z,87.70
2023-02-09T18:54:59.088Z,87.70
2023-02-09T18:57:25.967Z,87.50
2023-02-09T18:59:52.991Z,87.30
2023-02-09T19:02:20.604Z,87.50
2023-02-09T19:04:47.563Z,87.70
2023-02-09T19:07:14.587Z,87.80
2023-02-09T19:09:42.941Z,87.60
2023-02-09T19:12:09.909Z,87.50
2023-02-09T19:14:37.729Z,87.10
2023-02-09T19:17:09.768Z,87.40
2023-02-09T19:19:38.677Z,87.60
2023-02-09T19:22:05.665Z,87.30
2023-02-09T19:24:32.683Z,87.60
2023-02-09T19:26:59.681Z,87.10
2023-02-09T19:29:28.613Z,87.40
2023-02-09T19:31:55.866Z,87.70
2023-02-09T19:34:23.153Z,87.60
2023-02-09T19:36:50.097Z,87.80
2023-02-09T19:39:19.043Z,87.90
2023-02-09T19:41:47.232Z,87.80
2023-02-09T19:44:14.552Z,87.40
2023-02-09T19:46:42.608Z,87.80
2023-02-09T19:49:09.902Z,88.10
2023-02-09T19:51:37.345Z,88.20
2023-02-09T19:54:04.728Z,88.20
2023-02-09T19:56:31.721Z,88.10
2023-02-09T19:58:58.601Z,88.10
2023-02-09T20:01:26.866Z,87.60
2023-02-09T20:03:54.015Z,87.40
2023-02-09T20:06:20.982Z,88.00
2023-02-09T20:08:48.448Z,88.20
2023-02-09T20:11:17.121Z,87.70
2023-02-09T20:13:44.466Z,88.40
2023-02-09T20:16:13.416Z,87.90
2023-02-09T20:18:41.028Z,88.00
2023-02-09T20:21:08.325Z,88.30
2023-02-09T20:23:35.752Z,87.80
2023-02-09T20:26:08.839Z,88.00
2023-02-09T20:28:35.841Z,87.50
2023-02-09T20:31:02.867Z,87.90
2023-02-09T20:33:29.804Z,87.90
2023-02-09T20:35:56.702Z,87.50
2023-02-09T20:38:23.694Z,87.80
2023-02-09T20:40:50.568Z,87.60
2023-02-09T20:43:35.912Z,87.80
2023-02-09T20:46:25.040Z,87.40
2023-02-09T20:48:52.497Z,87.70
2023-02-09T20:51:19.382Z,88.20
2023-02-09T20:53:46.410Z,88.20
2023-02-09T20:56:13.320Z,87.60
2023-02-09T20:58:40.234Z,87.50
2023-02-09T21:01:07.190Z,87.10
2023-02-09T21:03:34.189Z,87.50
2023-02-09T21:06:01.110Z,88.00
2023-02-09T21:08:28.082Z,88.10
2023-02-09T21:10:55.714Z,88.00
2023-02-09T21:13:22.706Z,87.90
2023-02-09T21:15:49.987Z,87.80
2023-02-09T21:18:18.253Z,88.10
2023-02-09T21:20:45.883Z,88.10
2023-02-09T21:23:12.859Z,87.40
2023-02-09T21:25:39.813Z,87.80
2023-02-09T21:28:06.767Z,87.90
2023-02-09T21:30:33.741Z,87.80
2023-02-09T21:33:00.643Z,87.70
2023-02-09T21:35:27.557Z,87.30
2023-02-09T21:37:54.437Z,87.40
2023-02-09T21:40:21.402Z,87.10
2023-02-09T21:42:48.958Z,87.20
2023-02-09T21:45:16.404Z,87.50
2023-02-09T21:47:43.283Z,87.60
2023-02-09T21:50:11.550Z,87.40
2023-02-09T21:52:38.478Z,87.00
2023-02-09T21:55:05.621Z,87.00
2023-02-09T21:57:32.583Z,86.70
2023-02-09T22:00:04.402Z,87.20
2023-02-09T22:02:31.432Z,87.50
2023-02-09T22:04:58.356Z,87.60
2023-02-09T22:07:25.310Z,87.60
2023-02-09T22:09:52.283Z,87.60
2023-02-09T22:12:19.311Z,87.70
2023-02-09T22:14:46.214Z,88.40
2023-02-09T22:17:13.131Z,88.40
2023-02-09T22:19:40.142Z,88.30
2023-02-09T22:22:07.218Z,88.40
2023-02-09T22:24:34.861Z,88.60
2023-02-09T22:27:02.230Z,88.70
2023-02-09T22:29:29.269Z,88.10
2023-02-09T22:31:57.983Z,88.20
2023-02-09T22:34:25.464Z,87.90
2023-02-09T22:36:53.109Z,87.80
2023-02-09T22:39:20.629Z,87.20
2023-02-09T22:41:48.364Z,87.70
2023-02-09T22:44:16.241Z,87.70
2023-02-09T22:46:43.952Z,86.80
2023-02-09T22:49:20.897Z,86.50
2023-02-09T22:51:48.959Z,87.40
2023-02-09T22:54:16.585Z,87.10
2023-02-09T22:56:44.152Z,87.40
2023-02-09T22:59:12.207Z,87.40
2023-02-09T23:01:39.130Z,86.70
2023-02-09T23:04:06.136Z,86.50
2023-02-09T23:06:33.113Z,87.20
2023-02-09T23:09:01.456Z,87.20
2023-02-09T23:11:29.333Z,87.40
2023-02-09T23:14:09.653Z,87.40
2023-02-09T23:16:38.016Z,87.80
2023-02-09T23:19:06.440Z,88.30
2023-02-09T23:21:37.418Z,88.20
2023-02-09T23:24:04.763Z,88.00
2023-02-09T23:26:31.813Z,87.70
2023-02-09T23:28:59.933Z,87.60
2023-02-09T23:31:27.726Z,87.10
2023-02-09T23:33:54.771Z,86.70
2023-02-09T23:36:22.953Z,87.10
2023-02-09T23:38:57.526Z,86.90
2023-02-09T23:41:25.090Z,87.10
2023-02-09T23:43:52.814Z,86.50
2023-02-09T23:46:21.555Z,87.20
2023-02-09T23:48:49.371Z,87.50
2023-02-09T23:51:20.270Z,86.50
2023-02-09T23:53:47.786Z,86.60
2023-02-09T23:56:15.690Z,86.80
2023-02-09T23:58:43.752Z,87.00
